Time;durP1;ratioP1;P1;durP2;ratioP2;P2;SDS_P1;SDS_P2;PMS_P1;PMS_P2;Temp;Humidity;BMP_temperature;BMP_pressure;BME280_temperature;BME280_humidity;BME280_pressure;Samples;Min_cycle;Max_cycle;Signal;HPM_P1;HPM_P2
2020/12/25 05:02:03;;;;;;;2.28;2.17;;;3.00;99.90;;;;;;5239709;23;20271;-66
2020/12/25 05:04:29;;;;;;;4.03;2.30;;;2.90;99.90;;;;;;4970479;28;20207;-69
2020/12/25 05:06:55;;;;;;;2.35;2.25;;;2.90;99.90;;;;;;4973631;28;20319;-69
2020/12/25 05:09:22;;;;;;;1.85;1.77;;;2.90;99.90;;;;;;4972829;28;20229;-69
2020/12/25 05:11:52;;;;;;;3.92;1.80;;;2.80;99.90;;;;;;4959504;28;20224;-69
2020/12/25 05:14:19;;;;;;;4.00;2.10;;;2.80;99.90;;;;;;4953459;28;20212;-69
2020/12/25 05:16:47;;;;;;;6.50;2.40;;;2.80;99.90;;;;;;4953950;28;20212;-69
2020/12/25 05:19:14;;;;;;;4.90;2.42;;;2.80;99.90;;;;;;4947355;28;20214;-68
2020/12/25 05:21:41;;;;;;;4.60;2.80;;;2.80;99.90;;;;;;4950064;28;20253;-69
2020/12/25 05:24:08;;;;;;;3.35;2.03;;;2.80;99.90;;;;;;4954255;28;20201;-67
2020/12/25 05:26:35;;;;;;;3.83;2.85;;;2.80;99.90;;;;;;4954192;28;20217;-67
2020/12/25 05:29:03;;;;;;;5.70;1.92;;;2.80;99.90;;;;;;4953332;28;20217;-67
2020/12/25 05:31:30;;;;;;;2.38;2.17;;;2.80;99.90;;;;;;4943404;28;20273;-66
2020/12/25 05:33:59;;;;;;;5.90;2.90;;;2.70;99.90;;;;;;4953268;29;20272;-67
2020/12/25 05:36:30;;;;;;;5.20;3.22;;;2.60;99.90;;;;;;4944827;28;20560;-67
2020/12/25 05:38:56;;;;;;;6.07;3.65;;;2.50;99.90;;;;;;4952880;29;20205;-69
2020/12/25 05:41:24;;;;;;;3.72;3.25;;;2.50;99.90;;;;;;4953017;28;20237;-68
2020/12/25 05:43:52;;;;;;;6.50;3.42;;;2.40;99.90;;;;;;4937537;29;20269;-67
2020/12/25 05:46:18;;;;;;;4.65;4.25;;;2.30;99.90;;;;;;4948602;29;20213;-67
2020/12/25 05:48:49;;;;;;;4.82;3.40;;;2.30;99.90;;;;;;4953359;29;20244;-67
2020/12/25 05:51:16;;;;;;;3.55;3.35;;;2.20;99.90;;;;;;4941876;28;20317;-67
2020/12/25 05:53:45;;;;;;;2.90;2.80;;;2.10;99.90;;;;;;4950262;29;20213;-67
2020/12/25 05:56:14;;;;;;;4.30;4.00;;;2.10;99.90;;;;;;4953662;28;20240;-67
2020/12/25 05:58:44;;;;;;;3.08;2.78;;;2.00;99.90;;;;;;4944646;29;20210;-67
2020/12/25 06:01:11;;;;;;;5.15;2.97;;;1.90;99.90;;;;;;4935487;29;20325;-67
2020/12/25 06:03:38;;;;;;;3.28;2.97;;;1.90;99.90;;;;;;4934129;29;20237;-67
2020/12/25 06:06:12;;;;;;;6.28;3.67;;;1.90;99.90;;;;;;4942809;29;20634;-67
2020/12/25 06:08:57;;;;;;;3.17;2.97;;;1.80;99.90;;;;;;4954397;28;20581;-67
2020/12/25 06:11:29;;;;;;;3.75;3.40;;;1.80;99.90;;;;;;4956649;28;20658;-67
2020/12/25 06:13:56;;;;;;;3.75;3.08;;;1.70;99.90;;;;;;4957312;28;20245;-67
2020/12/25 06:16:24;;;;;;;3.67;3.40;;;1.70;99.90;;;;;;4956521;28;20268;-67
2020/12/25 06:18:59;;;;;;;5.20;3.15;;;1.60;99.90;;;;;;4957513;28;20210;-67
2020/12/25 06:21:33;;;;;;;3.80;3.40;;;1.60;99.90;;;;;;4956948;28;20225;-67
2020/12/25 06:24:02;;;;;;;7.32;3.13;;;1.60;99.90;;;;;;4955710;28;20264;-67
2020/12/25 06:26:30;;;;;;;6.13;3.13;;;1.60;99.90;;;;;;4955430;28;20209;-66
2020/12/25 06:29:02;;;;;;;3.00;2.90;;;1.50;99.90;;;;;;4956528;28;20233;-67
2020/12/25 06:31:41;;;;;;;4.78;3.50;;;1.50;99.90;;;;;;4957023;28;20791;-67
2020/12/25 06:34:07;;;;;;;3.83;3.53;;;1.50;99.90;;;;;;4955688;28;20303;-67
2020/12/25 06:36:34;;;;;;;3.40;2.90;;;1.50;99.90;;;;;;4957200;28;20216;-66
2020/12/25 06:39:04;;;;;;;3.33;2.47;;;1.50;99.90;;;;;;4954373;28;20197;-67
2020/12/25 06:41:33;;;;;;;3.90;3.65;;;1.40;99.90;;;;;;4956706;28;20236;-67
2020/12/25 06:43:59;;;;;;;3.17;2.92;;;1.40;99.90;;;;;;4955795;28;20647;-67
2020/12/25 06:46:29;;;;;;;7.13;4.05;;;1.40;99.90;;;;;;4956107;28;20217;-67
2020/12/25 06:49:02;;;;;;;3.15;2.95;;;1.30;99.90;;;;;;4954531;28;20230;-68
2020/12/25 06:51:28;;;;;;;3.30;3.08;;;1.40;99.90;;;;;;4956905;28;20288;-68
2020/12/25 06:53:56;;;;;;;9.57;3.60;;;1.40;99.90;;;;;;4955518;28;20216;-68
2020/12/25 06:56:22;;;;;;;4.97;3.08;;;1.30;99.90;;;;;;4945554;28;20565;-67
2020/12/25 06:58:51;;;;;;;3.33;3.10;;;1.30;99.90;;;;;;4938601;28;20202;-67
2020/12/25 07:01:33;;;;;;;3.20;3.00;;;1.30;99.90;;;;;;4938675;29;20272;-68
2020/12/25 07:03:59;;;;;;;3.25;2.60;;;1.20;99.90;;;;;;4937258;29;20206;-68
2020/12/25 07:06:29;;;;;;;5.53;2.85;;;1.30;99.90;;;;;;4938436;29;20732;-67
2020/12/25 07:08:55;;;;;;;3.78;3.38;;;1.30;99.90;;;;;;4937315;29;20234;-68
2020/12/25 07:11:21;;;;;;;3.20;3.00;;;1.30;99.90;;;;;;4939759;29;20718;-68
2020/12/25 07:13:48;;;;;;;3.28;3.00;;;1.30;99.90;;;;;;4955737;29;20235;-68
2020/12/25 07:16:15;;;;;;;4.32;3.22;;;1.30;99.90;;;;;;4954741;28;20210;-68
2020/12/25 07:18:41;;;;;;;2.97;2.80;;;1.20;99.90;;;;;;4955485;28;20284;-67
2020/12/25 07:21:08;;;;;;;3.60;2.83;;;1.20;99.90;;;;;;4955775;28;20236;-67
2020/12/25 07:23:41;;;;;;;5.22;3.47;;;1.20;99.90;;;;;;4955719;28;20440;-68
2020/12/25 07:26:08;;;;;;;2.67;2.58;;;1.20;99.90;;;;;;4953695;28;20213;-67
2020/12/25 07:28:34;;;;;;;3.40;2.92;;;1.20;99.90;;;;;;4942957;29;20213;-67
2020/12/25 07:31:00;;;;;;;2.95;2.75;;;1.20;99.90;;;;;;4940805;29;20552;-67
2020/12/25 07:33:27;;;;;;;4.97;2.70;;;1.10;99.90;;;;;;4936660;29;20253;-67
2020/12/25 07:35:53;;;;;;;3.17;2.97;;;1.10;99.90;;;;;;4954501;29;20229;-67
2020/12/25 07:38:20;;;;;;;3.03;2.65;;;1.10;99.90;;;;;;4937768;29;20226;-67
2020/12/25 07:40:47;;;;;;;3.13;2.92;;;1.10;99.90;;;;;;4953040;28;20229;-67
2020/12/25 07:43:14;;;;;;;2.75;2.60;;;1.10;99.90;;;;;;4955927;28;20213;-66
2020/12/25 07:45:41;;;;;;;2.95;2.75;;;1.10;99.90;;;;;;4954208;29;20225;-67
2020/12/25 07:48:08;;;;;;;3.40;3.20;;;1.10;99.90;;;;;;4936349;28;20217;-68
2020/12/25 07:50:37;;;;;;;3.83;2.75;;;1.20;99.90;;;;;;4949795;28;20222;-67
2020/12/25 07:53:08;;;;;;;2.50;2.35;;;1.20;99.90;;;;;;4962444;28;20222;-67
2020/12/25 07:55:34;;;;;;;3.92;2.80;;;1.20;99.90;;;;;;4966992;28;20284;-67
2020/12/25 07:58:01;;;;;;;4.60;2.92;;;1.20;99.90;;;;;;4944229;28;20300;-67
2020/12/25 08:00:28;;;;;;;3.95;3.13;;;1.20;99.90;;;;;;4937162;29;20217;-67
2020/12/25 08:02:54;;;;;;;4.93;3.38;;;1.30;99.90;;;;;;4947246;28;20746;-67
2020/12/25 08:05:20;;;;;;;2.67;2.40;;;1.30;99.90;;;;;;4954582;29;20213;-67
2020/12/25 08:07:48;;;;;;;3.60;2.78;;;1.40;99.90;;;;;;4946498;28;20524;-67
2020/12/25 08:10:17;;;;;;;6.35;3.08;;;1.40;99.90;;;;;;4954984;28;20320;-67
2020/12/25 08:12:44;;;;;;;5.47;2.95;;;1.40;99.90;;;;;;4955310;28;20197;-67
2020/12/25 08:15:12;;;;;;;4.72;3.17;;;1.50;99.90;;;;;;4954336;28;20245;-66
2020/12/25 08:17:39;;;;;;;2.38;2.28;;;1.50;99.90;;;;;;4945818;28;20260;-66
2020/12/25 08:20:06;;;;;;;5.68;2.55;;;1.50;99.90;;;;;;4954343;28;20571;-67
2020/12/25 08:22:32;;;;;;;4.80;3.53;;;1.50;99.90;;;;;;4946729;28;20234;-68
2020/12/25 08:24:59;;;;;;;3.90;3.50;;;1.50;99.90;;;;;;4954773;28;20213;-68
2020/12/25 08:27:32;;;;;;;2.03;2.00;;;1.50;99.90;;;;;;4951483;29;20575;-67
2020/12/25 08:30:00;;;;;;;2.72;2.50;;;1.50;99.90;;;;;;4955442;28;20716;-67
2020/12/25 08:32:29;;;;;;;8.20;2.17;;;1.50;99.90;;;;;;4961555;28;20673;-68
2020/12/25 08:35:08;;;;;;;3.03;2.28;;;1.40;99.90;;;;;;4962380;28;20293;-67
2020/12/25 08:37:34;;;;;;;3.17;2.00;;;1.40;99.90;;;;;;4959525;28;20256;-67
2020/12/25 08:40:13;;;;;;;5.28;3.35;;;1.50;99.90;;;;;;4961620;29;20216;-68
2020/12/25 08:42:39;;;;;;;1.70;1.60;;;1.40;99.90;;;;;;4951803;28;20232;-67
2020/12/25 08:45:06;;;;;;;2.53;2.20;;;1.40;99.90;;;;;;4949059;29;20213;-70
2020/12/25 08:47:32;;;;;;;3.40;2.80;;;1.40;99.90;;;;;;4952585;28;20224;-68
2020/12/25 08:49:58;;;;;;;3.00;2.60;;;1.40;99.90;;;;;;4961453;29;20205;-67
2020/12/25 08:52:24;;;;;;;3.83;2.15;;;1.50;99.90;;;;;;4947414;28;20237;-68
2020/12/25 08:54:55;;;;;;;2.50;2.40;;;1.50;99.90;;;;;;4962721;28;20217;-67
2020/12/25 08:57:22;;;;;;;6.13;2.10;;;1.60;99.90;;;;;;4944997;28;20222;-67
2020/12/25 08:59:59;;;;;;;3.67;3.42;;;1.70;99.90;;;;;;4963354;29;20650;-67
2020/12/25 09:02:25;;;;;;;2.35;2.25;;;1.70;99.90;;;;;;4944014;29;20245;-66
2020/12/25 09:04:51;;;;;;;5.25;2.90;;;1.80;99.90;;;;;;4947703;29;20556;-66
2020/12/25 09:07:17;;;;;;;2.20;2.10;;;1.80;99.90;;;;;;4951463;28;20276;-66
2020/12/25 09:09:43;;;;;;;3.05;2.65;;;1.90;99.90;;;;;;4939474;29;20197;-66
2020/12/25 09:12:09;;;;;;;6.28;2.90;;;1.90;99.90;;;;;;4948023;28;20226;-66
2020/12/25 09:14:36;;;;;;;4.15;2.60;;;1.90;99.90;;;;;;4940006;28;20201;-66
2020/12/25 09:17:03;;;;;;;6.25;2.45;;;2.00;99.90;;;;;;4949431;28;20209;-67
2020/12/25 09:19:29;;;;;;;2.60;2.40;;;2.00;99.90;;;;;;4942050;28;20237;-67
2020/12/25 09:21:55;;;;;;;3.00;2.72;;;2.00;99.90;;;;;;4934282;29;20304;-67
2020/12/25 09:24:21;;;;;;;2.28;1.80;;;2.10;99.90;;;;;;4946518;29;20212;-67
2020/12/25 09:26:48;;;;;;;2.67;2.47;;;2.10;99.90;;;;;;4952707;28;20201;-67
2020/12/25 09:29:14;;;;;;;3.30;2.53;;;2.20;99.90;;;;;;4952757;28;20213;-67
2020/12/25 09:31:41;;;;;;;3.47;2.75;;;2.20;99.90;;;;;;4943332;28;20276;-66
2020/12/25 09:34:07;;;;;;;2.30;1.95;;;2.30;99.90;;;;;;4947596;28;20212;-66
2020/12/25 09:36:33;;;;;;;3.00;2.40;;;2.30;99.90;;;;;;4945251;29;20544;-66
2020/12/25 09:38:59;;;;;;;3.15;2.58;;;2.30;99.90;;;;;;4946704;28;20605;-66
2020/12/25 09:41:25;;;;;;;3.08;2.88;;;2.40;99.90;;;;;;4953304;28;20593;-66
2020/12/25 09:43:51;;;;;;;4.00;2.08;;;2.40;99.90;;;;;;4953121;29;20232;-67
2020/12/25 09:46:18;;;;;;;2.90;2.70;;;2.40;99.90;;;;;;4944449;29;20205;-67
2020/12/25 09:48:45;;;;;;;3.35;2.38;;;2.40;99.90;;;;;;4948392;29;20197;-66
2020/12/25 09:51:11;;;;;;;2.20;2.10;;;2.50;99.90;;;;;;4952129;28;20220;-67
2020/12/25 09:53:37;;;;;;;3.45;2.47;;;2.50;99.90;;;;;;4951528;28;20201;-67
2020/12/25 09:56:03;;;;;;;2.25;2.15;;;2.50;99.90;;;;;;4948846;28;20213;-67
2020/12/25 09:58:30;;;;;;;2.85;2.15;;;2.50;99.90;;;;;;4941506;29;20634;-67
2020/12/25 10:00:56;;;;;;;1.70;1.70;;;2.50;99.90;;;;;;4952117;28;20245;-67
2020/12/25 10:03:24;;;;;;;2.50;1.90;;;2.50;99.90;;;;;;4952492;28;20252;-67
2020/12/25 10:05:51;;;;;;;3.85;2.13;;;2.50;99.90;;;;;;4946739;28;20205;-67
2020/12/25 10:08:17;;;;;;;2.03;1.90;;;2.50;99.90;;;;;;4952541;28;20669;-67
2020/12/25 10:10:43;;;;;;;8.65;3.47;;;2.50;99.90;;;;;;4945634;28;20678;-67
2020/12/25 10:13:10;;;;;;;2.17;2.08;;;2.50;99.90;;;;;;4943951;28;20674;-67
2020/12/25 10:15:36;;;;;;;6.82;2.70;;;2.50;99.90;;;;;;4947863;28;20217;-67
2020/12/25 10:18:02;;;;;;;3.85;1.98;;;2.50;99.90;;;;;;4936891;29;20693;-67
2020/12/25 10:20:28;;;;;;;3.28;2.67;;;2.60;99.90;;;;;;4942107;28;20229;-67
2020/12/25 10:22:56;;;;;;;4.18;3.50;;;2.60;99.90;;;;;;4941620;28;20315;-66
2020/12/25 10:25:22;;;;;;;3.55;2.65;;;2.70;99.90;;;;;;4947310;29;20417;-66
2020/12/25 10:27:48;;;;;;;4.78;2.85;;;2.80;99.90;;;;;;4946494;29;20205;-67
2020/12/25 10:30:14;;;;;;;4.18;2.90;;;2.80;99.90;;;;;;4944635;28;20213;-66
2020/12/25 10:32:41;;;;;;;3.88;2.42;;;2.90;99.90;;;;;;4943624;28;20206;-67
2020/12/25 10:35:07;;;;;;;3.08;2.20;;;2.90;99.90;;;;;;4944776;29;20513;-66
2020/12/25 10:37:35;;;;;;;1.95;1.85;;;2.90;99.90;;;;;;4945138;28;20547;-67
2020/12/25 10:40:03;;;;;;;3.40;3.10;;;2.80;99.90;;;;;;4933786;28;20218;-67
2020/12/25 10:42:29;;;;;;;4.60;1.85;;;2.80;99.90;;;;;;4935139;29;20224;-67
2020/12/25 10:44:55;;;;;;;3.22;2.40;;;2.70;99.90;;;;;;4934188;29;20214;-66
2020/12/25 10:47:21;;;;;;;4.60;4.18;;;2.70;99.90;;;;;;4934589;29;20491;-68
2020/12/25 10:49:47;;;;;;;8.93;4.63;;;2.70;99.90;;;;;;4947277;28;20218;-67
2020/12/25 10:52:14;;;;;;;3.85;3.65;;;2.70;99.90;;;;;;4952600;28;20229;-68
2020/12/25 10:54:40;;;;;;;3.85;3.00;;;2.70;99.90;;;;;;4953340;28;20213;-67
2020/12/25 10:57:07;;;;;;;2.55;2.45;;;2.80;99.90;;;;;;4955315;28;20205;-68
2020/12/25 10:59:33;;;;;;;4.88;2.40;;;2.70;99.90;;;;;;4955622;28;20345;-67
2020/12/25 11:01:59;;;;;;;3.75;3.10;;;2.80;99.90;;;;;;4953072;28;20307;-67
2020/12/25 11:04:25;;;;;;;5.20;2.53;;;2.80;99.90;;;;;;4956182;28;20221;-67
2020/12/25 11:06:51;;;;;;;2.80;2.63;;;2.80;99.90;;;;;;4956285;28;20329;-68
2020/12/25 11:09:17;;;;;;;4.72;2.97;;;2.80;99.90;;;;;;4955526;28;20202;-68
2020/12/25 11:11:44;;;;;;;2.63;2.53;;;2.80;99.90;;;;;;4956401;28;20239;-67
2020/12/25 11:14:11;;;;;;;2.20;2.10;;;2.90;99.90;;;;;;4952175;28;20643;-67
2020/12/25 11:16:38;;;;;;;3.20;2.55;;;2.90;99.90;;;;;;4936818;29;20674;-66
2020/12/25 11:19:07;;;;;;;2.70;2.25;;;2.90;99.90;;;;;;4937004;29;20674;-66
2020/12/25 11:21:35;;;;;;;2.80;2.70;;;2.90;99.90;;;;;;4936915;29;20302;-66
2020/12/25 11:24:03;;;;;;;2.13;2.03;;;2.90;99.90;;;;;;4937221;29;20206;-66
2020/12/25 11:26:30;;;;;;;2.50;2.33;;;3.00;99.90;;;;;;4937607;29;20214;-67
2020/12/25 11:28:58;;;;;;;3.58;2.58;;;3.00;99.90;;;;;;4947261;28;20221;-67
2020/12/25 11:31:26;;;;;;;1.77;1.60;;;3.00;99.90;;;;;;4955938;28;20233;-67
2020/12/25 11:33:52;;;;;;;2.10;2.00;;;3.00;99.90;;;;;;4955867;28;20689;-67
2020/12/25 11:36:20;;;;;;;10.68;2.70;;;3.00;99.90;;;;;;4952811;28;20210;-67
2020/12/25 11:38:47;;;;;;;5.22;2.17;;;3.00;99.90;;;;;;4937041;29;20280;-67
2020/12/25 11:41:16;;;;;;;2.47;2.38;;;3.10;99.90;;;;;;4936876;29;20273;-67
2020/12/25 11:43:42;;;;;;;2.05;2.05;;;3.10;99.90;;;;;;4952231;29;20201;-66
2020/12/25 11:46:09;;;;;;;2.38;2.28;;;3.10;99.90;;;;;;4954744;28;20599;-67
2020/12/25 11:48:37;;;;;;;3.15;2.70;;;3.10;99.90;;;;;;4955331;28;20283;-66
2020/12/25 11:51:03;;;;;;;2.40;2.30;;;3.20;99.90;;;;;;4952229;28;20271;-67
2020/12/25 11:53:29;;;;;;;3.33;3.13;;;3.20;99.90;;;;;;4953787;28;20201;-67
2020/12/25 11:55:55;;;;;;;2.47;2.35;;;3.20;99.90;;;;;;4937063;28;20210;-67
2020/12/25 11:58:21;;;;;;;3.30;3.20;;;3.30;99.90;;;;;;4937837;29;20233;-67
2020/12/25 12:00:48;;;;;;;4.60;2.60;;;3.30;99.90;;;;;;4935816;29;20714;-68
2020/12/25 12:03:14;;;;;;;2.55;2.40;;;3.30;99.90;;;;;;4935785;29;20738;-68
2020/12/25 12:05:42;;;;;;;2.05;2.05;;;3.30;99.90;;;;;;4936298;29;20213;-67
2020/12/25 12:08:08;;;;;;;1.88;1.88;;;3.40;99.90;;;;;;4939290;29;20217;-67
2020/12/25 12:10:35;;;;;;;2.55;1.67;;;3.40;99.90;;;;;;4952721;28;20221;-67
2020/12/25 12:13:01;;;;;;;5.25;2.45;;;3.40;99.90;;;;;;4955347;28;20520;-67
2020/12/25 12:15:28;;;;;;;6.68;2.70;;;3.40;99.90;;;;;;4954977;28;20213;-67
2020/12/25 12:17:54;;;;;;;4.95;2.38;;;3.40;99.90;;;;;;4955405;28;20264;-67
2020/12/25 12:20:20;;;;;;;3.08;2.83;;;3.50;99.90;;;;;;4955857;28;20212;-68
2020/12/25 12:22:47;;;;;;;2.40;2.20;;;3.50;99.90;;;;;;4947378;28;20210;-68
2020/12/25 12:25:13;;;;;;;2.53;2.42;;;3.50;99.90;;;;;;4938817;29;20206;-68
2020/12/25 12:27:39;;;;;;;4.00;2.20;;;3.50;99.90;;;;;;4952530;28;20209;-68
2020/12/25 12:30:07;;;;;;;2.28;2.00;;;3.50;99.90;;;;;;4955170;28;20201;-67
2020/12/25 12:32:33;;;;;;;1.48;1.48;;;3.50;99.90;;;;;;4955406;28;20224;-67
2020/12/25 12:34:59;;;;;;;1.92;1.85;;;3.50;99.90;;;;;;4954306;28;20583;-68
2020/12/25 12:37:25;;;;;;;2.30;2.10;;;3.60;99.90;;;;;;4940135;28;20226;-68
2020/12/25 12:39:52;;;;;;;2.50;2.40;;;3.60;99.90;;;;;;4935898;29;20245;-68
2020/12/25 12:42:18;;;;;;;1.58;1.48;;;3.60;99.90;;;;;;4935585;29;20236;-68
2020/12/25 12:44:45;;;;;;;2.97;1.98;;;3.60;99.90;;;;;;4935226;29;20605;-68
2020/12/25 12:47:11;;;;;;;2.60;2.38;;;3.60;99.90;;;;;;4935138;29;20210;-68
2020/12/25 12:49:37;;;;;;;2.60;1.70;;;3.60;99.90;;;;;;4935208;29;20249;-68
2020/12/25 12:52:03;;;;;;;1.98;1.90;;;3.60;99.90;;;;;;4953023;28;20643;-68
2020/12/25 12:54:29;;;;;;;2.30;2.30;;;3.70;99.90;;;;;;4954369;28;20740;-68
2020/12/25 12:56:56;;;;;;;3.70;2.83;;;3.70;99.90;;;;;;4953637;28;20209;-68
2020/12/25 12:59:22;;;;;;;2.58;1.90;;;3.70;99.90;;;;;;4942281;28;20551;-68
2020/12/25 13:01:49;;;;;;;2.78;2.20;;;3.70;99.90;;;;;;4934426;29;20237;-68
2020/12/25 13:04:15;;;;;;;2.08;1.98;;;3.70;99.90;;;;;;4938499;29;20265;-68
2020/12/25 13:06:46;;;;;;;1.80;1.70;;;3.70;99.90;;;;;;4942928;28;20221;-68
2020/12/25 13:09:12;;;;;;;2.45;2.35;;;3.70;99.90;;;;;;4935621;29;20213;-68
2020/12/25 13:11:38;;;;;;;3.10;2.47;;;3.70;99.90;;;;;;4934948;29;20229;-66
2020/12/25 13:14:05;;;;;;;7.85;2.70;;;3.70;99.90;;;;;;4935066;29;20218;-67
2020/12/25 13:16:31;;;;;;;1.92;1.83;;;3.70;99.90;;;;;;4935347;29;20276;-68
2020/12/25 13:18:57;;;;;;;2.10;2.03;;;3.70;99.90;;;;;;4936532;28;20230;-68
2020/12/25 13:21:25;;;;;;;2.15;1.98;;;3.70;99.90;;;;;;4935127;29;20694;-69
2020/12/25 13:23:52;;;;;;;2.20;2.00;;;3.70;99.90;;;;;;4934738;29;20218;-68
2020/12/25 13:26:19;;;;;;;1.70;1.70;;;3.70;99.90;;;;;;4936268;29;20281;-68
2020/12/25 13:28:46;;;;;;;1.98;1.35;;;3.70;99.90;;;;;;4952278;28;20216;-68
2020/12/25 13:31:17;;;;;;;2.45;2.13;;;3.70;99.90;;;;;;4954174;28;20292;-68
2020/12/25 13:33:44;;;;;;;1.70;1.42;;;3.70;99.90;;;;;;4953740;28;20216;-68
2020/12/25 13:36:11;;;;;;;1.38;1.27;;;3.70;99.90;;;;;;4943823;28;20216;-68
2020/12/25 13:38:37;;;;;;;4.22;1.55;;;3.70;99.90;;;;;;4935460;29;20233;-69
2020/12/25 13:41:05;;;;;;;3.85;1.48;;;3.70;99.90;;;;;;4936242;29;20230;-68
2020/12/25 13:43:31;;;;;;;1.73;1.63;;;3.70;99.90;;;;;;4954331;28;20708;-68
2020/12/25 13:45:57;;;;;;;1.70;1.60;;;3.60;99.90;;;;;;4955322;28;20209;-68
2020/12/25 13:48:24;;;;;;;1.83;0.88;;;3.60;99.90;;;;;;4954191;28;20312;-69
2020/12/25 13:50:50;;;;;;;2.30;1.10;;;3.60;99.90;;;;;;4955018;28;20312;-70
2020/12/25 13:53:16;;;;;;;3.53;1.55;;;3.60;99.90;;;;;;4954254;28;20217;-69
2020/12/25 13:55:43;;;;;;;1.40;1.30;;;3.60;99.90;;;;;;4950708;28;20205;-69
2020/12/25 13:58:09;;;;;;;2.47;1.80;;;3.60;99.90;;;;;;4941076;29;20209;-69
2020/12/25 14:00:35;;;;;;;1.60;1.60;;;3.50;99.90;;;;;;4939450;29;20241;-69
2020/12/25 14:03:01;;;;;;;1.92;1.83;;;3.60;99.90;;;;;;4943315;29;20197;-68
2020/12/25 14:05:28;;;;;;;1.48;1.45;;;3.50;99.90;;;;;;4944935;28;20225;-68
2020/12/25 14:07:54;;;;;;;1.90;1.80;;;3.50;99.90;;;;;;4959990;28;20674;-68
2020/12/25 14:10:20;;;;;;;5.85;2.13;;;3.50;99.90;;;;;;4959646;28;20209;-68
2020/12/25 14:12:47;;;;;;;2.17;1.55;;;3.50;99.90;;;;;;4945276;28;20557;-67
2020/12/25 14:15:13;;;;;;;1.92;1.77;;;3.40;99.90;;;;;;4952395;29;20232;-68
2020/12/25 14:17:40;;;;;;;1.60;1.60;;;3.50;99.90;;;;;;4943688;28;20261;-68
2020/12/25 14:20:06;;;;;;;1.00;1.00;;;3.40;99.90;;;;;;4952678;28;20229;-68
2020/12/25 14:22:33;;;;;;;3.50;1.52;;;3.40;99.90;;;;;;4943467;28;20221;-68
2020/12/25 14:25:00;;;;;;;2.75;1.88;;;3.40;99.90;;;;;;4947640;29;20202;-68
2020/12/25 14:27:26;;;;;;;2.13;1.50;;;3.30;99.90;;;;;;4943269;29;20209;-68
2020/12/25 14:29:52;;;;;;;2.22;2.13;;;3.30;99.90;;;;;;4954327;28;20201;-68
2020/12/25 14:32:18;;;;;;;3.22;1.88;;;3.30;99.90;;;;;;4950468;29;20232;-68
2020/12/25 14:34:45;;;;;;;2.13;2.03;;;3.20;99.90;;;;;;4941628;29;20590;-68
2020/12/25 14:37:11;;;;;;;2.33;2.22;;;3.20;99.90;;;;;;4956230;28;20201;-69
2020/12/25 14:39:38;;;;;;;4.18;2.88;;;3.20;99.90;;;;;;4956832;28;20248;-69
2020/12/25 14:42:04;;;;;;;2.42;2.22;;;3.20;99.90;;;;;;4955777;28;20481;-69
2020/12/25 14:44:31;;;;;;;2.70;2.50;;;3.20;99.90;;;;;;4953201;28;20206;-68
2020/12/25 14:46:57;;;;;;;2.90;2.45;;;3.10;99.90;;;;;;4947631;28;20202;-68
2020/12/25 14:49:23;;;;;;;1.73;1.70;;;3.10;99.90;;;;;;4938333;29;20639;-69
2020/12/25 14:51:49;;;;;;;3.70;1.65;;;3.00;99.90;;;;;;4962424;28;20673;-68
2020/12/25 14:54:16;;;;;;;4.55;2.47;;;3.00;99.90;;;;;;4959396;28;20205;-69
2020/12/25 14:56:43;;;;;;;2.50;2.50;;;3.00;99.90;;;;;;4957579;28;20334;-68
2020/12/25 14:59:09;;;;;;;2.20;2.10;;;2.90;99.90;;;;;;4958128;28;20636;-68
2020/12/25 15:01:36;;;;;;;2.22;1.92;;;2.90;99.90;;;;;;4957647;28;20604;-68
2020/12/25 15:04:02;;;;;;;3.15;2.95;;;2.80;99.90;;;;;;4956420;28;20209;-68
2020/12/25 15:06:29;;;;;;;2.67;2.50;;;2.70;99.90;;;;;;4956517;28;20225;-68
2020/12/25 15:08:55;;;;;;;3.53;3.35;;;2.70;99.90;;;;;;4950849;28;20210;-69
2020/12/25 15:11:22;;;;;;;4.85;4.55;;;2.60;99.90;;;;;;4956848;28;20229;-69
2020/12/25 15:13:49;;;;;;;4.35;4.15;;;2.50;99.90;;;;;;4954314;28;20272;-68
2020/12/25 15:16:19;;;;;;;3.47;3.28;;;2.50;99.90;;;;;;4956081;28;20209;-67
2020/12/25 15:18:46;;;;;;;4.30;4.00;;;2.40;99.90;;;;;;4954986;28;20233;-68
2020/12/25 15:21:12;;;;;;;6.78;5.03;;;2.40;99.90;;;;;;4956091;28;20307;-67
2020/12/25 15:23:39;;;;;;;4.13;3.70;;;2.30;99.90;;;;;;4947024;28;20216;-68
2020/12/25 15:26:06;;;;;;;5.55;5.15;;;2.30;99.90;;;;;;4951270;28;20209;-67
2020/12/25 15:28:32;;;;;;;4.80;4.40;;;2.30;99.90;;;;;;4955396;29;20202;-68
2020/12/25 15:30:59;;;;;;;4.00;3.80;;;2.20;99.90;;;;;;4954748;28;20233;-67
2020/12/25 15:33:25;;;;;;;4.32;3.80;;;2.20;99.90;;;;;;4953371;28;20651;-69
2020/12/25 15:35:52;;;;;;;3.30;3.05;;;2.10;99.90;;;;;;4954455;28;20220;-69
2020/12/25 15:38:18;;;;;;;4.13;3.83;;;2.10;99.90;;;;;;4955115;28;20201;-68
2020/12/25 15:40:44;;;;;;;15.88;9.43;;;2.00;99.90;;;;;;4954953;28;20229;-68
2020/12/25 15:43:11;;;;;;;11.30;7.60;;;2.00;99.90;;;;;;4954137;28;20276;-68
2020/12/25 15:45:37;;;;;;;7.50;6.40;;;2.00;99.90;;;;;;4937865;28;20221;-68
2020/12/25 15:48:04;;;;;;;11.50;5.78;;;2.00;99.90;;;;;;4954596;28;20221;-68
2020/12/25 15:50:31;;;;;;;7.25;4.53;;;1.90;99.90;;;;;;4956221;28;20233;-68
2020/12/25 15:52:57;;;;;;;4.03;3.67;;;1.90;99.90;;;;;;4937911;28;20226;-68
2020/12/25 15:55:23;;;;;;;3.60;3.40;;;1.90;99.90;;;;;;4936081;29;20218;-68
2020/12/25 15:57:49;;;;;;;4.00;3.80;;;1.80;99.90;;;;;;4952037;29;20202;-67
2020/12/25 16:00:16;;;;;;;3.13;3.03;;;1.80;99.90;;;;;;4954717;28;20300;-67
2020/12/25 16:02:43;;;;;;;2.50;2.40;;;1.80;99.90;;;;;;4940122;28;20210;-67
2020/12/25 16:05:10;;;;;;;2.30;2.20;;;1.80;99.90;;;;;;4950510;28;20244;-67
2020/12/25 16:07:37;;;;;;;2.90;2.70;;;1.70;99.90;;;;;;4951072;28;20202;-67
2020/12/25 16:10:03;;;;;;;3.00;2.80;;;1.70;99.90;;;;;;4954193;28;20566;-67
2020/12/25 16:12:29;;;;;;;3.88;3.58;;;1.70;99.90;;;;;;4954599;29;20591;-67
2020/12/25 16:14:55;;;;;;;2.53;2.40;;;1.70;99.90;;;;;;4948898;29;20507;-67
2020/12/25 16:17:22;;;;;;;3.10;2.90;;;1.70;99.90;;;;;;4954480;28;20337;-68
2020/12/25 16:19:48;;;;;;;2.70;2.50;;;1.70;99.90;;;;;;4954236;28;20252;-68
2020/12/25 16:22:18;;;;;;;4.47;2.55;;;1.70;99.90;;;;;;4954937;28;20557;-69
2020/12/25 16:24:44;;;;;;;2.63;2.40;;;1.70;99.90;;;;;;4950036;28;20202;-69
2020/12/25 16:27:11;;;;;;;2.80;2.60;;;1.60;99.90;;;;;;4935423;29;20269;-69
2020/12/25 16:29:37;;;;;;;6.22;2.92;;;1.60;99.90;;;;;;4946202;29;20209;-69
2020/12/25 16:32:03;;;;;;;3.33;3.13;;;1.60;99.90;;;;;;4934962;29;20300;-69
2020/12/25 16:34:29;;;;;;;4.35;3.70;;;1.60;99.90;;;;;;4940987;29;20593;-67
2020/12/25 16:36:55;;;;;;;3.92;3.63;;;1.60;99.90;;;;;;4954782;28;20205;-67
2020/12/25 16:39:22;;;;;;;10.75;6.70;;;1.60;99.90;;;;;;4952071;28;20232;-67
2020/12/25 16:41:49;;;;;;;9.07;4.47;;;1.60;99.90;;;;;;4954064;28;20236;-67
2020/12/25 16:44:15;;;;;;;9.30;6.45;;;1.60;99.90;;;;;;4938146;28;20288;-67
2020/12/25 16:46:43;;;;;;;14.40;8.70;;;1.60;99.90;;;;;;4934771;29;20210;-67
2020/12/25 16:49:09;;;;;;;155.18;42.20;;;1.50;99.90;;;;;;4946152;28;20209;-67
2020/12/25 16:51:35;;;;;;;173.05;48.72;;;1.50;99.90;;;;;;4954067;28;20228;-67
2020/12/25 16:54:01;;;;;;;28.25;12.98;;;1.50;99.90;;;;;;4952582;28;20205;-67
2020/12/25 16:56:29;;;;;;;12.88;6.57;;;1.50;99.90;;;;;;4954265;28;20213;-67
2020/12/25 16:58:55;;;;;;;8.45;6.70;;;1.40;99.90;;;;;;4952982;28;20291;-67
2020/12/25 17:01:23;;;;;;;6.35;5.78;;;1.40;99.90;;;;;;4938379;28;20229;-67
2020/12/25 17:03:49;;;;;;;5.95;5.50;;;1.40;99.90;;;;;;4946083;28;20292;-67
2020/12/25 17:06:20;;;;;;;7.88;6.15;;;1.30;99.90;;;;;;4950710;28;20271;-67
2020/12/25 17:08:47;;;;;;;6.57;6.03;;;1.30;99.90;;;;;;4951259;28;20308;-67
2020/12/25 17:11:13;;;;;;;6.85;6.15;;;1.30;99.90;;;;;;4953557;28;20304;-67
2020/12/25 17:13:40;;;;;;;8.07;7.32;;;1.30;99.90;;;;;;4953297;28;20210;-67
2020/12/25 17:16:10;;;;;;;7.68;6.65;;;1.30;99.90;;;;;;4952789;29;20211;-67
2020/12/25 17:18:36;;;;;;;5.97;5.30;;;1.30;99.90;;;;;;4941875;28;20568;-69
2020/12/25 17:21:02;;;;;;;7.65;5.10;;;1.20;99.90;;;;;;4935244;29;20241;-71
2020/12/25 17:23:29;;;;;;;9.63;5.97;;;1.20;99.90;;;;;;4936031;29;20198;-69
2020/12/25 17:25:55;;;;;;;7.00;6.30;;;1.10;99.90;;;;;;4934656;29;20213;-69
2020/12/25 17:28:21;;;;;;;6.72;6.22;;;1.10;99.90;;;;;;4934514;29;20214;-69
2020/12/25 17:30:48;;;;;;;7.78;7.13;;;1.10;99.90;;;;;;4949704;28;20245;-68
2020/12/25 17:33:14;;;;;;;8.65;7.05;;;1.10;99.90;;;;;;4953559;29;20209;-68
2020/12/25 17:35:40;;;;;;;14.45;7.78;;;1.00;99.90;;;;;;4953667;29;20208;-69
2020/12/25 17:38:06;;;;;;;15.95;10.23;;;1.00;99.90;;;;;;4944914;29;20221;-68
2020/12/25 17:40:33;;;;;;;19.40;10.82;;;1.00;99.90;;;;;;4947193;28;20224;-69
2020/12/25 17:42:59;;;;;;;14.82;10.05;;;0.90;99.90;;;;;;4951120;28;20496;-69
2020/12/25 17:45:25;;;;;;;13.70;11.05;;;0.90;99.90;;;;;;4932360;29;20213;-68
2020/12/25 17:47:52;;;;;;;14.07;9.90;;;0.90;99.90;;;;;;4950726;29;20209;-69
2020/12/25 17:50:18;;;;;;;8.93;7.80;;;0.90;99.90;;;;;;4953923;28;20235;-69
2020/12/25 17:52:44;;;;;;;11.38;8.20;;;0.80;99.90;;;;;;4951843;28;20205;-69
2020/12/25 17:55:10;;;;;;;10.00;7.22;;;0.80;99.90;;;;;;4949382;28;20209;-69